createdAt,value
2023-03-07T00:02:16.013Z,96656.97
2023-03-07T00:04:47.001Z,96661.84
2023-03-07T00:07:15.002Z,96661.91
2023-03-07T00:09:42.224Z,96668.09
2023-03-07T00:12:10.479Z,96658.69
2023-03-07T00:14:37.996Z,96663.06
2023-03-07T00:17:05.181Z,96671.38
2023-03-07T00:19:32.354Z,96666.50
2023-03-07T00:21:59.671Z,96657.50
2023-03-07T00:24:26.961Z,96652.50
2023-03-07T00:26:54.019Z,96656.56
2023-03-07T00:29:20.949Z,96653.38
2023-03-07T00:31:49.544Z,96647.97
2023-03-07T00:34:16.587Z,96646.13
2023-03-07T00:36:43.582Z,96653.56
2023-03-07T00:39:11.081Z,96658.72
2023-03-07T00:41:38.419Z,96642.44
2023-03-07T00:44:06.778Z,96648.16
2023-03-07T00:46:33.785Z,96638.47
2023-03-07T00:49:01.186Z,96633.72
2023-03-07T00:51:28.719Z,96635.41
2023-03-07T00:53:55.661Z,96640.34
2023-03-07T00:56:25.646Z,96637.19
2023-03-07T00:58:53.295Z,96636.56
2023-03-07T01:01:25.278Z,96625.94
2023-03-07T01:03:56.292Z,96625.50
2023-03-07T01:06:27.353Z,96616.31
2023-03-07T01:08:58.668Z,96615.19
2023-03-07T01:11:27.299Z,96618.06
2023-03-07T01:14:04.372Z,96610.81
2023-03-07T01:16:36.005Z,96612.09
2023-03-07T01:19:07.714Z,96613.44
2023-03-07T01:21:39.011Z,96610.44
2023-03-07T01:24:08.344Z,96619.91
2023-03-07T01:26:36.073Z,96607.25
2023-03-07T01:29:05.473Z,96607.03
2023-03-07T01:31:36.005Z,96604.56
2023-03-07T01:34:04.470Z,96605.91
2023-03-07T01:36:36.678Z,96606.06
2023-03-07T01:39:16.870Z,96597.19
2023-03-07T01:42:04.658Z,96603.66
2023-03-07T01:44:52.363Z,96597.53
2023-03-07T01:47:19.983Z,96600.91
2023-03-07T01:49:51.748Z,96591.63
2023-03-07T01:52:33.468Z,96597.28
2023-03-07T01:55:28.774Z,96588.38
2023-03-07T01:58:07.522Z,96587.38
2023-03-07T02:00:36.323Z,96580.19
2023-03-07T02:03:10.066Z,96579.88
2023-03-07T02:05:46.903Z,96576.41
2023-03-07T02:08:16.490Z,96582.81
2023-03-07T02:10:44.222Z,96577.19
2023-03-07T02:13:11.509Z,96577.28
2023-03-07T02:15:39.820Z,96583.69
2023-03-07T02:18:08.959Z,96555.06
2023-03-07T02:21:43.991Z,96563.56
2023-03-07T02:24:26.700Z,96558.63
2023-03-07T02:26:54.729Z,96563.66
2023-03-07T02:29:21.843Z,96569.38
2023-03-07T02:31:49.002Z,96563.84
2023-03-07T02:34:26.889Z,96561.06
2023-03-07T02:37:11.463Z,96562.88
2023-03-07T02:39:44.619Z,96560.19
2023-03-07T02:42:29.089Z,96566.84
2023-03-07T02:45:10.010Z,96556.75
2023-03-07T02:47:38.476Z,96563.94
2023-03-07T02:50:06.684Z,96558.22
2023-03-07T02:52:35.120Z,96564.63
2023-03-07T02:55:02.331Z,96566.06
2023-03-07T02:57:33.990Z,96562.28
2023-03-07T03:00:06.845Z,96545.91
2023-03-07T03:02:34.364Z,96554.31
2023-03-07T03:05:01.327Z,96549.47
2023-03-07T03:07:28.342Z,96555.28
2023-03-07T03:09:55.694Z,96548.00
2023-03-07T03:12:23.006Z,96540.72
2023-03-07T03:14:50.827Z,96541.28
2023-03-07T03:17:18.613Z,96532.03
2023-03-07T03:19:45.582Z,96528.94
2023-03-07T03:22:12.511Z,96533.88
2023-03-07T03:24:43.739Z,96528.16
2023-03-07T03:27:14.075Z,96524.22
2023-03-07T03:29:42.967Z,96524.66
2023-03-07T03:32:10.416Z,96523.34
2023-03-07T03:34:38.309Z,96521.28
2023-03-07T03:37:05.406Z,96525.13
2023-03-07T03:39:32.479Z,96519.81
2023-03-07T03:42:00.380Z,96516.72
2023-03-07T03:44:28.003Z,96516.91
2023-03-07T03:46:56.869Z,96513.63
2023-03-07T03:49:24.921Z,96519.81
2023-03-07T03:51:54.171Z,96516.56
2023-03-07T03:54:21.118Z,96506.84
2023-03-07T03:56:48.382Z,96517.34
2023-03-07T03:59:15.305Z,96511.19
2023-03-07T04:01:43.254Z,96509.22
2023-03-07T04:04:10.482Z,96501.56
2023-03-07T04:06:38.806Z,96503.53
2023-03-07T04:09:06.248Z,96506.00
2023-03-07T04:11:33.607Z,96505.78
2023-03-07T04:14:01.444Z,96503.50
2023-03-07T04:16:29.629Z,96500.03
2023-03-07T04:18:58.339Z,96496.09
2023-03-07T04:21:25.777Z,96499.25
2023-03-07T04:23:58.225Z,96488.06
2023-03-07T04:26:29.066Z,96486.59
2023-03-07T04:28:56.377Z,96497.47
2023-03-07T04:31:28.925Z,96491.59
2023-03-07T04:33:58.587Z,96499.28
2023-03-07T04:36:26.393Z,96481.50
2023-03-07T04:38:53.521Z,96488.81
2023-03-07T04:41:26.054Z,96485.97
2023-03-07T04:44:00.948Z,96493.28
2023-03-07T04:46:28.502Z,96485.78
2023-03-07T04:48:55.750Z,96488.41
2023-03-07T04:51:23.209Z,96476.88
2023-03-07T04:53:50.672Z,96466.75
2023-03-07T04:56:17.998Z,96475.94
2023-03-07T04:58:47.000Z,96464.38
2023-03-07T05:01:14.804Z,96468.34
2023-03-07T05:03:43.197Z,96469.75
2023-03-07T05:06:15.508Z,96461.03
2023-03-07T05:08:46.680Z,96462.75
2023-03-07T05:11:14.451Z,96470.13
2023-03-07T05:13:44.992Z,96455.50
2023-03-07T05:16:17.463Z,96458.75
2023-03-07T05:18:45.059Z,96458.38
2023-03-07T05:21:13.016Z,96468.00
2023-03-07T05:23:40.726Z,96460.13
2023-03-07T05:26:09.460Z,96459.38
2023-03-07T05:28:37.434Z,96452.66
2023-03-07T05:31:05.034Z,96447.69
2023-03-07T05:33:32.314Z,96441.13
2023-03-07T05:36:01.267Z,96441.63
2023-03-07T05:38:29.185Z,96445.41
2023-03-07T05:40:56.551Z,96441.91
2023-03-07T05:43:23.572Z,96444.09
2023-03-07T05:45:52.352Z,96447.50
2023-03-07T05:48:20.000Z,96448.78
2023-03-07T05:50:46.947Z,96452.16
2023-03-07T05:53:14.200Z,96448.50
2023-03-07T05:55:41.540Z,96454.56
2023-03-07T05:58:09.230Z,96450.41
2023-03-07T06:00:36.435Z,96467.00
2023-03-07T06:03:04.132Z,96453.13
2023-03-07T06:05:32.106Z,96449.50
2023-03-07T06:07:59.025Z,96452.13
2023-03-07T06:10:26.657Z,96452.25
2023-03-07T06:12:54.454Z,96444.13
2023-03-07T06:15:24.446Z,96440.59
2023-03-07T06:17:55.369Z,96436.91
2023-03-07T06:20:22.414Z,96438.03
2023-03-07T06:22:49.882Z,96443.19
2023-03-07T06:25:17.093Z,96436.31
2023-03-07T06:27:44.830Z,96440.06
2023-03-07T06:30:13.232Z,96433.06
2023-03-07T06:32:41.117Z,96423.09
2023-03-07T06:35:09.670Z,96431.94
2023-03-07T06:37:36.980Z,96432.44
2023-03-07T06:40:06.271Z,96434.94
2023-03-07T06:42:36.120Z,96435.97
2023-03-07T06:45:05.203Z,96435.13
2023-03-07T06:47:32.552Z,96437.22
2023-03-07T06:49:59.619Z,96438.97
2023-03-07T06:52:27.423Z,96438.84
2023-03-07T06:54:55.042Z,96432.78
2023-03-07T06:57:21.983Z,96430.50
2023-03-07T06:59:49.085Z,96433.97
2023-03-07T07:02:16.391Z,96432.09
2023-03-07T07:04:43.335Z,96436.41
2023-03-07T07:07:10.941Z,96435.47
2023-03-07T07:09:38.357Z,96438.69
2023-03-07T07:12:05.941Z,96438.44
2023-03-07T07:14:34.638Z,96441.41
2023-03-07T07:17:02.308Z,96443.94
2023-03-07T07:19:29.400Z,96436.16
2023-03-07T07:21:58.166Z,96445.38
2023-03-07T07:24:25.591Z,96445.94
2023-03-07T07:26:53.708Z,96440.22
2023-03-07T07:29:21.150Z,96437.50
2023-03-07T07:31:49.818Z,96437.44
2023-03-07T07:34:18.731Z,96435.75
2023-03-07T07:36:46.808Z,96429.50
2023-03-07T07:39:15.202Z,96432.75
2023-03-07T07:41:44.579Z,96437.69
2023-03-07T07:44:12.664Z,96442.00
2023-03-07T07:46:52.709Z,96420.84
2023-03-07T07:49:20.105Z,96423.91
2023-03-07T07:51:47.231Z,96428.50
2023-03-07T07:54:14.767Z,96425.22
2023-03-07T07:56:42.227Z,96420.28
2023-03-07T07:59:11.010Z,96423.31
2023-03-07T08:01:38.448Z,96430.72
2023-03-07T08:04:05.622Z,96419.56
2023-03-07T08:06:32.978Z,96426.16
2023-03-07T08:09:00.293Z,96421.50
2023-03-07T08:11:27.662Z,96418.78
2023-03-07T08:13:54.697Z,96422.66
2023-03-07T08:16:23.306Z,96417.50
2023-03-07T08:18:53.751Z,96415.59
2023-03-07T08:21:21.305Z,96418.38
2023-03-07T08:23:48.683Z,96412.91
2023-03-07T08:26:17.532Z,96414.59
2023-03-07T08:28:44.819Z,96416.16
2023-03-07T08:31:13.471Z,96412.56
2023-03-07T08:33:41.091Z,96409.06
2023-03-07T08:36:08.700Z,96407.94
2023-03-07T08:38:36.244Z,96400.53
2023-03-07T08:41:05.942Z,96401.41
2023-03-07T08:43:36.352Z,96402.50
2023-03-07T08:46:04.265Z,96397.25
2023-03-07T08:48:31.967Z,96394.72
2023-03-07T08:51:09.430Z,96404.78
2023-03-07T08:53:37.546Z,96398.03
2023-03-07T08:56:13.647Z,96404.00
2023-03-07T08:58:41.882Z,96389.25
2023-03-07T09:01:09.336Z,96388.13
2023-03-07T09:03:36.925Z,96380.91
2023-03-07T09:06:05.036Z,96382.66
2023-03-07T09:08:32.997Z,96385.34
2023-03-07T09:11:03.455Z,96380.53
2023-03-07T09:13:33.036Z,96368.88
2023-03-07T09:16:05.566Z,96382.13
2023-03-07T09:18:34.180Z,96373.25
2023-03-07T09:21:02.452Z,96377.47
2023-03-07T09:23:29.787Z,96374.38
2023-03-07T09:26:01.261Z,96367.00
2023-03-07T09:28:28.685Z,96373.22
2023-03-07T09:30:56.146Z,96372.66
2023-03-07T09:33:23.541Z,96371.94
2023-03-07T09:35:50.457Z,96363.91
2023-03-07T09:38:17.769Z,96371.59
2023-03-07T09:40:48.024Z,96360.94
2023-03-07T09:43:27.118Z,96358.47
2023-03-07T09:46:58.100Z,96363.00
2023-03-07T09:49:40.837Z,96356.06
2023-03-07T09:52:14.481Z,96346.78
2023-03-07T09:55:16.459Z,96345.03
2023-03-07T09:57:51.699Z,96349.28
2023-03-07T10:00:32.244Z,96355.84
2023-03-07T10:03:55.698Z,96351.16
2023-03-07T10:06:39.096Z,96341.91
2023-03-07T10:09:12.447Z,96346.28
2023-03-07T10:12:00.521Z,96341.63
2023-03-07T10:14:52.232Z,96341.56
2023-03-07T10:17:46.549Z,96340.16
2023-03-07T10:20:31.469Z,96340.81
2023-03-07T10:23:20.980Z,96328.69
2023-03-07T10:25:58.761Z,96328.91
2023-03-07T10:28:31.021Z,96330.66
2023-03-07T10:31:01.059Z,96340.41
2023-03-07T10:33:30.393Z,96347.44
2023-03-07T10:36:14.259Z,96334.56
2023-03-07T10:38:52.172Z,96331.66
2023-03-07T10:41:21.629Z,96332.56
2023-03-07T10:43:50.997Z,96336.66
2023-03-07T10:46:26.916Z,96333.25
2023-03-07T10:49:10.569Z,96320.50
2023-03-07T10:52:04.888Z,96320.59
2023-03-07T10:54:37.226Z,96320.66
2023-03-07T10:57:13.794Z,96313.91
2023-03-07T10:59:44.026Z,96323.47
2023-03-07T11:02:29.836Z,96312.13
2023-03-07T11:04:57.803Z,96315.28
2023-03-07T11:07:32.506Z,96312.00
2023-03-07T11:10:02.021Z,96316.66
2023-03-07T11:12:31.951Z,96315.63
2023-03-07T11:15:15.325Z,96313.75
2023-03-07T11:17:49.280Z,96313.59
2023-03-07T11:20:30.152Z,96312.22
2023-03-07T11:23:19.808Z,96305.56
2023-03-07T11:25:46.762Z,96312.03
2023-03-07T11:28:26.793Z,96306.22
2023-03-07T11:31:27.924Z,96295.44
2023-03-07T11:34:26.589Z,96301.94
2023-03-07T11:36:59.736Z,96280.16
2023-03-07T11:40:03.656Z,96285.25
2023-03-07T11:42:46.528Z,96279.63
2023-03-07T11:45:38.246Z,96282.19
2023-03-07T11:48:43.786Z,96271.88
2023-03-07T11:51:39.532Z,96288.31
2023-03-07T11:54:31.524Z,96290.56
2023-03-07T11:57:53.426Z,96284.66
2023-03-07T12:01:04.339Z,96277.44
2023-03-07T12:03:55.969Z,96277.75
2023-03-07T12:07:00.823Z,96269.09
2023-03-07T12:10:10.196Z,96277.06
2023-03-07T12:12:45.847Z,96267.19
2023-03-07T12:15:44.743Z,96277.38
2023-03-07T12:18:36.676Z,96257.06
2023-03-07T12:21:22.196Z,96251.78
2023-03-07T12:23:57.301Z,96248.03
2023-03-07T12:26:28.370Z,96249.69
2023-03-07T12:29:14.133Z,96251.47
2023-03-07T12:31:46.537Z,96255.91
2023-03-07T12:34:40.153Z,96243.31
2023-03-07T12:37:16.743Z,96238.47
2023-03-07T12:40:02.828Z,96236.28
2023-03-07T12:42:45.883Z,96222.31
2023-03-07T12:45:28.088Z,96229.56
2023-03-07T12:48:10.785Z,96222.59
2023-03-07T12:50:56.180Z,96210.16
2023-03-07T12:53:44.253Z,96206.66
2023-03-07T12:56:31.592Z,96203.22
2023-03-07T12:59:17.133Z,96201.59
2023-03-07T13:01:49.179Z,96190.47
2023-03-07T13:04:36.489Z,96200.13
2023-03-07T13:07:28.384Z,96188.25
2023-03-07T13:09:58.705Z,96191.19
2023-03-07T13:12:29.543Z,96184.81
2023-03-07T13:14:59.303Z,96169.69
2023-03-07T13:17:34.878Z,96176.19
2023-03-07T13:20:02.140Z,96174.50
2023-03-07T13:22:29.459Z,96168.22
2023-03-07T13:24:58.759Z,96171.34
2023-03-07T13:27:43.632Z,96176.00
2023-03-07T13:30:17.982Z,96173.19
2023-03-07T13:32:56.993Z,96176.59
2023-03-07T13:35:35.886Z,96174.09
2023-03-07T13:38:24.651Z,96171.69
2023-03-07T13:40:56.399Z,96176.69
2023-03-07T13:43:24.175Z,96170.50
2023-03-07T13:46:30.663Z,96168.03
2023-03-07T13:49:02.074Z,96174.06
2023-03-07T13:51:29.998Z,96169.00
2023-03-07T13:54:06.269Z,96165.34
2023-03-07T13:56:41.087Z,96176.84
2023-03-07T13:59:14.130Z,96171.50
2023-03-07T14:01:46.122Z,96174.50
2023-03-07T14:04:29.664Z,96173.56
2023-03-07T14:07:20.237Z,96167.03
2023-03-07T14:09:56.035Z,96172.59
2023-03-07T14:13:05.574Z,96175.25
2023-03-07T14:16:08.443Z,96170.28
2023-03-07T14:18:58.068Z,96177.16
2023-03-07T14:21:48.226Z,96172.09
2023-03-07T14:24:44.581Z,96181.47
2023-03-07T14:27:15.088Z,96177.19
2023-03-07T14:29:54.414Z,96174.72
2023-03-07T14:32:30.390Z,96175.16
2023-03-07T14:34:58.476Z,96178.63
2023-03-07T14:37:30.932Z,96181.84
2023-03-07T14:40:22.781Z,96183.66
2023-03-07T14:43:08.198Z,96187.13
2023-03-07T14:46:02.201Z,96193.69
2023-03-07T14:48:57.819Z,96193.75
2023-03-07T14:51:28.701Z,96197.28
2023-03-07T14:53:57.181Z,96186.09
2023-03-07T14:56:27.665Z,96182.84
2023-03-07T14:58:58.191Z,96176.97
2023-03-07T15:01:35.636Z,96169.50
2023-03-07T15:04:08.078Z,96167.72
2023-03-07T15:06:44.199Z,96164.59
2023-03-07T15:09:11.603Z,96170.16
2023-03-07T15:11:44.376Z,96160.59
2023-03-07T15:14:18.100Z,96164.00
2023-03-07T15:16:50.750Z,96164.34
2023-03-07T15:19:26.457Z,96166.66
2023-03-07T15:22:00.613Z,96171.09
2023-03-07T15:24:37.326Z,96168.94
2023-03-07T15:27:06.637Z,96173.13
2023-03-07T15:29:34.047Z,96166.66
2023-03-07T15:32:07.154Z,96164.59
2023-03-07T15:34:38.258Z,96173.94
2023-03-07T15:37:27.226Z,96165.63
2023-03-07T15:39:58.810Z,96164.91
2023-03-07T15:42:25.945Z,96165.78
2023-03-07T15:44:58.835Z,96169.63
2023-03-07T15:47:28.309Z,96172.59
2023-03-07T15:49:59.121Z,96167.59
2023-03-07T15:52:34.358Z,96170.94
2023-03-07T15:55:15.920Z,96182.84
2023-03-07T15:57:54.296Z,96179.41
2023-03-07T16:00:42.813Z,96170.09
2023-03-07T16:03:30.495Z,96169.44
2023-03-07T16:06:00.002Z,96165.84
2023-03-07T16:08:27.640Z,96167.47
2023-03-07T16:11:10.464Z,96161.41
2023-03-07T16:13:43.925Z,96171.09
2023-03-07T16:16:23.625Z,96175.34
2023-03-07T16:18:51.384Z,96175.97
2023-03-07T16:21:19.432Z,96178.00
2023-03-07T16:23:47.143Z,96177.09
2023-03-07T16:26:22.896Z,96179.13
2023-03-07T16:28:51.528Z,96183.84
2023-03-07T16:31:19.573Z,96179.59
2023-03-07T16:33:47.364Z,96185.19
2023-03-07T16:36:15.642Z,96185.06
2023-03-07T16:38:43.493Z,96175.75
2023-03-07T16:41:21.853Z,96185.22
2023-03-07T16:43:58.892Z,96185.59
2023-03-07T16:46:28.182Z,96191.59
2023-03-07T16:48:55.206Z,96198.75
2023-03-07T16:51:26.085Z,96198.72
2023-03-07T16:53:52.995Z,96195.63
2023-03-07T16:56:25.591Z,96194.72
2023-03-07T16:58:53.175Z,96207.88
2023-03-07T17:01:20.605Z,96215.47
2023-03-07T17:03:48.029Z,96213.91
2023-03-07T17:06:16.950Z,96210.44
2023-03-07T17:08:45.023Z,96215.78
2023-03-07T17:11:21.774Z,96213.63
2023-03-07T17:13:53.118Z,96209.13
2023-03-07T17:16:20.974Z,96209.75
2023-03-07T17:18:48.127Z,96213.63
2023-03-07T17:21:18.725Z,96209.75
2023-03-07T17:23:46.541Z,96209.56
2023-03-07T17:26:32.204Z,96218.28
2023-03-07T17:29:03.668Z,96214.63
2023-03-07T17:31:30.957Z,96223.66
2023-03-07T17:33:59.149Z,96228.81
2023-03-07T17:36:26.527Z,96227.03
2023-03-07T17:38:53.432Z,96228.59
2023-03-07T17:41:20.341Z,96241.19
2023-03-07T17:43:47.252Z,96243.84
2023-03-07T17:46:14.242Z,96246.22
2023-03-07T17:48:41.882Z,96250.28
2023-03-07T17:51:12.447Z,96251.28
2023-03-07T17:53:39.865Z,96252.91
2023-03-07T17:56:13.150Z,96240.69
2023-03-07T17:58:40.716Z,96252.03
2023-03-07T18:01:08.455Z,96253.91
2023-03-07T18:03:35.772Z,96268.94
2023-03-07T18:06:02.721Z,96253.91
2023-03-07T18:08:29.652Z,96253.84
2023-03-07T18:11:08.074Z,96268.00
2023-03-07T18:13:35.393Z,96265.72
2023-03-07T18:16:03.174Z,96266.09
2023-03-07T18:18:36.564Z,96261.41
2023-03-07T18:21:11.498Z,96269.34
2023-03-07T18:23:39.146Z,96274.19
2023-03-07T18:26:13.624Z,96264.03
2023-03-07T18:28:43.649Z,96276.75
2023-03-07T18:31:18.797Z,96267.50
2023-03-07T18:33:57.197Z,96270.31
2023-03-07T18:36:25.597Z,96270.50
2023-03-07T18:38:52.901Z,96277.22
2023-03-07T18:41:23.863Z,96267.69
2023-03-07T18:43:54.790Z,96274.63
2023-03-07T18:46:24.857Z,96279.81
2023-03-07T18:48:52.798Z,96266.56
2023-03-07T18:51:26.724Z,96270.72
2023-03-07T18:53:56.491Z,96266.47
2023-03-07T18:56:24.048Z,96276.09
2023-03-07T18:58:55.758Z,96274.31
2023-03-07T19:01:32.615Z,96279.38
2023-03-07T19:04:03.486Z,96285.19
2023-03-07T19:06:39.168Z,96286.03
2023-03-07T19:09:26.062Z,96300.31
2023-03-07T19:11:53.692Z,96296.66
2023-03-07T19:14:20.633Z,96304.50
2023-03-07T19:16:47.641Z,96301.13
2023-03-07T19:19:14.885Z,96309.09
2023-03-07T19:21:41.916Z,96307.59
2023-03-07T19:24:11.929Z,96309.75
2023-03-07T19:26:40.895Z,96312.63
2023-03-07T19:29:09.647Z,96308.16
2023-03-07T19:31:36.712Z,96310.72
2023-03-07T19:34:06.309Z,96306.81
2023-03-07T19:36:35.190Z,96298.25
2023-03-07T19:39:03.000Z,96300.28
2023-03-07T19:41:31.644Z,96304.66
2023-03-07T19:44:00.197Z,96313.31
2023-03-07T19:46:27.589Z,96319.56
2023-03-07T19:48:55.753Z,96325.41
2023-03-07T19:51:25.892Z,96325.84
2023-03-07T19:53:56.133Z,96316.59
2023-03-07T19:56:29.930Z,96327.47
2023-03-07T19:58:59.369Z,96330.97
2023-03-07T20:01:28.422Z,96319.81
2023-03-07T20:03:56.033Z,96325.66
2023-03-07T20:06:26.819Z,96326.63
2023-03-07T20:08:55.788Z,96322.22
2023-03-07T20:11:32.919Z,96325.31
2023-03-07T20:14:03.401Z,96328.69
2023-03-07T20:16:30.690Z,96335.88
2023-03-07T20:19:01.457Z,96341.06
2023-03-07T20:21:29.136Z,96332.69
2023-03-07T20:24:00.729Z,96329.31
2023-03-07T20:26:37.709Z,96326.53
2023-03-07T20:29:06.787Z,96322.94
2023-03-07T20:31:36.006Z,96317.84
2023-03-07T20:34:03.219Z,96323.25
2023-03-07T20:36:35.821Z,96325.34
2023-03-07T20:39:13.024Z,96325.84
2023-03-07T20:41:41.133Z,96327.75
2023-03-07T20:44:11.039Z,96326.47
2023-03-07T20:46:38.644Z,96336.22
2023-03-07T20:49:05.758Z,96339.56
2023-03-07T20:51:35.832Z,96342.47
2023-03-07T20:54:08.909Z,96336.44
2023-03-07T20:56:37.981Z,96338.09
2023-03-07T20:59:05.836Z,96341.34
2023-03-07T21:01:34.733Z,96336.75
2023-03-07T21:04:11.192Z,96344.78
2023-03-07T21:06:41.811Z,96342.06
2023-03-07T21:09:10.309Z,96348.44
2023-03-07T21:11:40.309Z,96345.84
2023-03-07T21:14:08.274Z,96339.25
2023-03-07T21:16:35.396Z,96355.88
2023-03-07T21:19:05.527Z,96355.53
2023-03-07T21:21:35.174Z,96362.53
2023-03-07T21:24:02.689Z,96351.63
2023-03-07T21:26:33.561Z,96352.47
2023-03-07T21:29:00.740Z,96356.66
2023-03-07T21:31:31.025Z,96358.94
2023-03-07T21:34:01.352Z,96360.13
2023-03-07T21:36:31.206Z,96366.94
2023-03-07T21:38:59.004Z,96376.25
2023-03-07T21:41:26.806Z,96380.03
2023-03-07T21:43:54.864Z,96381.56
2023-03-07T21:46:22.416Z,96394.66
2023-03-07T21:48:49.798Z,96401.72
2023-03-07T21:51:17.357Z,96396.84
2023-03-07T21:53:44.626Z,96401.69
2023-03-07T21:56:16.974Z,96403.41
2023-03-07T21:58:47.375Z,96403.31
2023-03-07T22:01:21.584Z,96401.88
2023-03-07T22:03:51.941Z,96411.78
2023-03-07T22:06:19.346Z,96407.72
2023-03-07T22:08:46.385Z,96409.22
2023-03-07T22:11:13.950Z,96406.66
2023-03-07T22:13:42.185Z,96411.13
2023-03-07T22:16:14.160Z,96411.50
2023-03-07T22:18:41.494Z,96410.75
2023-03-07T22:21:11.429Z,96411.81
2023-03-07T22:23:38.832Z,96405.38
2023-03-07T22:26:11.009Z,96425.00
2023-03-07T22:28:40.408Z,96423.38
2023-03-07T22:31:11.462Z,96421.84
2023-03-07T22:33:39.780Z,96420.13
2023-03-07T22:36:08.663Z,96421.38
2023-03-07T22:38:35.820Z,96406.75
2023-03-07T22:41:17.792Z,96407.38
2023-03-07T22:43:45.006Z,96414.41
2023-03-07T22:46:12.706Z,96419.34
2023-03-07T22:48:40.735Z,96409.63
2023-03-07T22:51:17.848Z,96414.38
2023-03-07T22:53:45.470Z,96422.13
2023-03-07T22:56:27.270Z,96412.06
2023-03-07T22:58:54.699Z,96409.59
2023-03-07T23:01:25.609Z,96405.16
2023-03-07T23:03:54.872Z,96400.44
2023-03-07T23:06:24.091Z,96410.06
2023-03-07T23:08:52.845Z,96405.84
2023-03-07T23:11:23.261Z,96410.53
2023-03-07T23:13:50.570Z,96418.03
2023-03-07T23:16:21.493Z,96424.63
2023-03-07T23:18:50.686Z,96415.78
2023-03-07T23:21:23.912Z,96432.69
2023-03-07T23:23:53.967Z,96429.97
2023-03-07T23:26:36.261Z,96435.72
2023-03-07T23:29:07.611Z,96429.25
2023-03-07T23:31:38.664Z,96453.84
2023-03-07T23:34:18.995Z,96452.00
2023-03-07T23:36:46.150Z,96456.09
2023-03-07T23:39:14.832Z,96448.47
2023-03-07T23:41:42.139Z,96445.88
2023-03-07T23:44:09.888Z,96449.56
2023-03-07T23:46:37.162Z,96445.06
2023-03-07T23:49:04.427Z,96445.59
2023-03-07T23:51:31.603Z,96449.22
2023-03-07T23:53:58.490Z,96450.31
2023-03-07T23:56:25.851Z,96447.94
2023-03-07T23:58:52.820Z,96449.88
